createdAt,value
2023-11-26T00:03:47.883Z,2.3
2023-11-26T00:09:24.319Z,2.4
2023-11-26T00:15:10.813Z,2.4
2023-11-26T00:20:40.775Z,2.5
2023-11-26T00:26:05.718Z,2.4
2023-11-26T00:31:32.697Z,2.4
2023-11-26T00:37:08.968Z,2.4
2023-11-26T00:42:51.414Z,2.4
2023-11-26T00:48:22.354Z,2.4
2023-11-26T00:53:35.872Z,2.3
2023-11-26T00:59:12.466Z,2.3
2023-11-26T01:04:58.039Z,2.3
2023-11-26T01:10:21.377Z,2.3
2023-11-26T01:15:37.088Z,2.4
2023-11-26T01:21:23.474Z,2.3
2023-11-26T01:26:53.742Z,2.1
2023-11-26T01:32:19.851Z,2.2
2023-11-26T01:37:44.652Z,2.4
2023-11-26T01:43:23.524Z,2.8
2023-11-26T01:48:55.284Z,3
2023-11-26T01:54:28.379Z,3
2023-11-26T01:59:54.045Z,3
2023-11-26T02:05:27.107Z,2.9
2023-11-26T02:10:46.678Z,2.6
2023-11-26T02:16:34.395Z,2.3
2023-11-26T02:21:56.226Z,2.3
2023-11-26T02:27:22.916Z,2.3
2023-11-26T02:32:52.191Z,2.4
2023-11-26T02:38:46.762Z,2.3
2023-11-26T02:44:07.995Z,2.2
2023-11-26T02:49:27.925Z,2.3
2023-11-26T02:55:07.218Z,2.5
2023-11-26T03:00:37.961Z,2.3
2023-11-26T03:06:07.018Z,2.4
2023-11-26T03:11:57.406Z,2.8
2023-11-26T03:17:05.003Z,3
2023-11-26T03:22:32.965Z,2.9
2023-11-26T03:33:56.841Z,2.5
2023-11-26T03:39:06.558Z,2.3
2023-11-26T03:45:04.158Z,2.2
2023-11-26T03:50:27.886Z,2.4
2023-11-26T03:55:49.950Z,2.4
2023-11-26T04:01:35.533Z,2.4
2023-11-26T04:07:02.537Z,2.4
2023-11-26T04:12:20.629Z,2.3
2023-11-26T04:17:58.907Z,2.3
2023-11-26T04:23:24.826Z,2.4
2023-11-26T04:28:53.229Z,2.3
2023-11-26T04:34:18.968Z,2.2
2023-11-26T04:40:01.371Z,2.2
2023-11-26T04:45:31.392Z,2.3
2023-11-26T04:50:49.388Z,2.2
2023-11-26T04:56:31.533Z,2.3
2023-11-26T05:02:02.420Z,2.3
2023-11-26T05:07:35.886Z,2.3
2023-11-26T05:13:07.468Z,2.4
2023-11-26T05:24:18.310Z,2.4
2023-11-26T05:29:32.959Z,2.3
2023-11-26T05:35:17.934Z,2.2
2023-11-26T05:40:52.579Z,2
2023-11-26T05:46:15.051Z,2
2023-11-26T05:51:54.424Z,2
2023-11-26T05:57:16.833Z,1.8
2023-11-26T06:02:44.961Z,1.6
2023-11-26T06:13:38.660Z,1.4
2023-11-26T06:19:17.221Z,1.3
2023-11-26T06:24:47.073Z,1.2
2023-11-26T06:30:05.063Z,1.2
2023-11-26T06:35:46.135Z,1.2
2023-11-26T06:41:29.895Z,1.2
2023-11-26T06:46:54.399Z,1.4
2023-11-26T06:52:24.100Z,1.7
2023-11-26T07:09:07.764Z,1.8
2023-11-26T07:14:33.472Z,1.8
2023-11-26T07:20:09.504Z,1.8
2023-11-26T07:25:31.896Z,1.8
2023-11-26T07:31:10.347Z,1.8
2023-11-26T07:36:27.534Z,1.8
2023-11-26T07:41:48.045Z,1.8
2023-11-26T07:47:31.859Z,1.9
2023-11-26T07:52:49.286Z,2.1
2023-11-26T07:58:35.647Z,2.2
2023-11-26T08:04:11.951Z,2.4
2023-11-26T08:09:35.624Z,2.6
2023-11-26T08:20:48.565Z,2.8
2023-11-26T08:31:36.472Z,2.5
2023-11-26T08:37:20.126Z,3
2023-11-26T08:48:00.958Z,2.9
2023-11-26T08:53:47.333Z,2.8
2023-11-26T08:59:15.020Z,2.9
2023-11-26T09:04:36.105Z,3
2023-11-26T09:10:21.392Z,2.9
2023-11-26T09:15:41.069Z,3
2023-11-26T09:21:13.448Z,3.1
2023-11-26T09:26:40.915Z,3.6
2023-11-26T09:32:29.797Z,3.6
2023-11-26T09:43:24.607Z,3.8
2023-11-26T09:49:01.801Z,3.8
2023-11-26T09:54:45.186Z,3.6
2023-11-26T09:59:53.964Z,3.6
2023-11-26T10:05:37.523Z,4.3
2023-11-26T10:10:53.109Z,4.4
2023-11-26T10:16:25.341Z,5.2
2023-11-26T10:22:12.130Z,4.7
2023-11-26T10:27:46.091Z,5.2
2023-11-26T10:38:52.619Z,6.3
2023-11-26T10:44:13.653Z,5.8
2023-11-26T10:49:37.918Z,5.4
2023-11-26T10:55:16.586Z,5.9
2023-11-26T11:00:51.961Z,5.9
2023-11-26T11:06:15.167Z,5.9
2023-11-26T11:17:24.371Z,5.4
2023-11-26T11:22:49.275Z,5.3
2023-11-26T11:34:02.231Z,5.7
2023-11-26T11:39:27.963Z,5.8
2023-11-26T11:45:02.522Z,6
2023-11-26T11:50:51.287Z,6.2
2023-11-26T11:56:06.800Z,6.2
2023-11-26T12:01:38.316Z,5.8
2023-11-26T12:07:25.672Z,6
2023-11-26T12:12:55.938Z,6.1
2023-11-26T12:23:46.247Z,6.4
2023-11-26T12:29:28.710Z,5.7
2023-11-26T12:34:49.880Z,6
2023-11-26T12:40:35.692Z,6.6
2023-11-26T12:51:35.343Z,6.9
2023-11-26T13:02:27.301Z,7
2023-11-26T13:13:49.454Z,7.8
2023-11-26T13:19:24.252Z,7.7
2023-11-26T13:24:55.058Z,7.1
2023-11-26T13:30:03.076Z,7.6
2023-11-26T13:35:46.069Z,7.5
2023-11-26T13:41:10.838Z,8.2
2023-11-26T13:46:40.513Z,7.5
2023-11-26T13:52:12.531Z,7.1
2023-11-26T13:57:51.068Z,7.3
2023-11-26T14:03:41.400Z,6.7
2023-11-26T14:09:07.369Z,7.2
2023-11-26T14:14:29.634Z,6.4
2023-11-26T14:19:57.128Z,6.5
2023-11-26T14:25:34.303Z,6.5
2023-11-26T14:31:02.517Z,6.2
2023-11-26T14:36:41.648Z,5.9
2023-11-26T14:42:01.370Z,6
2023-11-26T14:53:13.903Z,5.3
2023-11-26T14:58:43.137Z,5.2
2023-11-26T15:04:15.158Z,5
2023-11-26T15:09:55.717Z,5
2023-11-26T15:15:38.026Z,4.8
2023-11-26T15:21:08.299Z,4.7
2023-11-26T15:26:34.269Z,4.4
2023-11-26T15:32:15.704Z,4.6
2023-11-26T15:37:29.370Z,4.5
2023-11-26T15:48:33.488Z,4.3
2023-11-26T15:54:07.271Z,4.3
2023-11-26T15:59:30.434Z,4.4
2023-11-26T16:05:20.496Z,4
2023-11-26T16:10:31.529Z,3.8
2023-11-26T16:16:04.898Z,3.8
2023-11-26T16:21:47.787Z,3.8
2023-11-26T16:27:28.263Z,3.8
2023-11-26T16:32:54.402Z,3.5
2023-11-26T16:43:50.227Z,3.4
2023-11-26T16:49:24.656Z,3.3
2023-11-26T16:54:48.695Z,3.2
2023-11-26T17:00:29.084Z,3.1
2023-11-26T17:06:15.166Z,3
2023-11-26T17:11:44.609Z,3.1
2023-11-26T17:17:04.134Z,2.9
2023-11-26T17:33:51.232Z,2.7
2023-11-26T17:39:10.941Z,2.7
2023-11-26T17:44:59.321Z,2.8
2023-11-26T17:50:13.329Z,2.6
2023-11-26T17:55:53.967Z,2.5
2023-11-26T18:01:17.706Z,2.4
2023-11-26T18:06:43.930Z,2.6
2023-11-26T18:12:24.702Z,2.6
2023-11-26T18:17:44.412Z,2.6
2023-11-26T18:23:18.654Z,2.5
2023-11-26T18:28:46.533Z,2.4
2023-11-26T18:34:28.543Z,2.4
2023-11-26T18:40:15.651Z,1.6
2023-11-26T20:08:53.305Z,0.8
2023-11-26T20:47:20.115Z,0.9
2023-11-26T21:15:07.493Z,0.9
2023-11-26T21:20:54.153Z,1.1
2023-11-26T21:26:17.925Z,0.9
2023-11-26T21:31:44.962Z,0.9
2023-11-26T21:37:13.065Z,0.7
2023-11-26T21:42:51.257Z,0.9
2023-11-26T21:53:53.256Z,0.9
2023-11-26T21:59:09.858Z,0.6
2023-11-26T22:04:47.289Z,0.4
2023-11-26T22:10:19.791Z,0.4
2023-11-26T22:15:43.982Z,0.4
2023-11-26T22:32:16.477Z,0.2
2023-11-26T22:37:59.085Z,0.3
2023-11-26T22:43:38.006Z,0.5
2023-11-26T22:49:06.817Z,0.6
2023-11-26T22:54:44.816Z,0.7
2023-11-26T22:59:54.188Z,0.8
2023-11-26T23:05:42.312Z,0.8
2023-11-26T23:10:55.116Z,0.8
2023-11-26T23:16:37.712Z,0.9
2023-11-26T23:21:59.678Z,0.9
2023-11-26T23:27:35.290Z,0.9
2023-11-26T23:33:15.190Z,0.9
2023-11-26T23:38:39.235Z,0.8
2023-11-26T23:49:50.383Z,0.8
